HKMO/MBA METAR and TAF weather

Enter ICAO airport designator
Station Type Date Time Source
HKMO METAR 2020/01/22 15:00 UTC NOAA

HKMO 221500Z 06012KT 9999 SCT024 BKN090 28/24 Q1006 NOSIG


Station Type Date Time Source
HKMO Decoded METAR 2020/01/22 15:00 UTC NOAA

Mombasa, Kenya (HKMO) 04-02S 039-37E 55M
Jan 22, 2020 - 10:00 AM EST / 2020.01.22 1500 UTC
Wind: from the ENE (060 degrees) at 14 MPH (12 KT):0
Visibility: greater than 7 mile(s):0
Sky conditions: mostly cloudy
Temperature: 82 F (28 C)
Dew Point: 75 F (24 C)
Relative Humidity: 78%
Pressure (altimeter): 29.71 in. Hg (1006 hPa)
ob: HKMO 221500Z 06012KT 9999 SCT024 BKN090 28/24 Q1006 NOSIG
cycle: 15

Station Type Date Time Source
HKMO TAF 2020/01/22 12:59 UTC NOAA

TAF HKMO 221100Z 2212/2318 06010KT 9999 SCT026
BECMG 2218/2222 02005KT SCT022
BECMG 2300/2306 34005KT BKN020
BECMG 2309/2312 07010KT FEW025CB

Example: see airport list